Time;durP1;ratioP1;P1;durP2;ratioP2;P2;SDS_P1;SDS_P2;PMS_P1;PMS_P2;Temp;Humidity;BMP_temperature;BMP_pressure;BME280_temperature;BME280_humidity;BME280_pressure;Samples;Min_cycle;Max_cycle;Signal;HPM_P1;HPM_P2
2021/07/05 00:00:03;;;;;;;11.23;5.85;;;640.50;1356.80;;;;;;5094735;28;20024;-69
2021/07/05 00:02:29;;;;;;;21.38;6.10;;;640.30;1356.80;;;;;;5094728;28;20024;-69
2021/07/05 00:04:55;;;;;;;12.15;6.00;;;640.40;1356.80;;;;;;5094701;28;20027;-69
2021/07/05 00:07:21;;;;;;;13.20;6.35;;;640.30;1356.80;;;;;;5094746;28;20434;-69
2021/07/05 00:09:47;;;;;;;13.73;6.80;;;640.30;1356.80;;;;;;5094418;28;20031;-69
2021/07/05 00:12:13;;;;;;;12.00;5.93;;;640.30;1356.80;;;;;;5094536;28;20047;-69
2021/07/05 00:14:39;;;;;;;14.48;6.07;;;640.30;1356.80;;;;;;5094847;28;20020;-69
2021/07/05 00:17:05;;;;;;;14.55;5.55;;;640.30;1356.80;;;;;;5094501;28;20070;-69
2021/07/05 00:19:31;;;;;;;12.18;5.15;;;640.20;1356.80;;;;;;5094602;28;20460;-69
2021/07/05 00:21:57;;;;;;;14.85;6.40;;;640.20;1356.80;;;;;;5094570;28;20027;-69
2021/07/05 00:24:23;;;;;;;11.77;5.88;;;640.20;1382.40;;;;;;5093679;28;20040;-69
2021/07/05 00:26:49;;;;;;;21.85;6.68;;;640.10;1408.00;;;;;;5094325;28;20365;-69
2021/07/05 00:29:15;;;;;;;14.65;6.40;;;615.30;1408.00;;;;;;5094499;28;20395;-69
2021/07/05 00:31:41;;;;;;;12.52;6.60;;;615.30;1433.60;;;;;;5094368;28;20021;-69
2021/07/05 00:34:07;;;;;;;14.18;6.82;;;615.30;1433.60;;;;;;5094238;28;20103;-68
2021/07/05 00:36:33;;;;;;;14.20;6.30;;;640.00;1433.60;;;;;;5094177;28;20063;-69
2021/07/05 00:38:59;;;;;;;10.25;5.50;;;640.00;1408.00;;;;;;5094159;28;20051;-69
2021/07/05 00:41:29;;;;;;;10.30;6.18;;;640.00;1408.00;;;;;;5094117;28;20375;-68
2021/07/05 00:43:56;;;;;;;10.90;5.55;;;640.10;1382.40;;;;;;5094355;28;20107;-69
2021/07/05 00:46:22;;;;;;;14.98;5.57;;;640.10;1382.40;;;;;;5094116;28;20112;-69
2021/07/05 00:48:48;;;;;;;10.65;5.43;;;640.10;1382.40;;;;;;5094223;28;20016;-69
2021/07/05 00:51:16;;;;;;;9.23;5.18;;;640.10;1408.00;;;;;;5092737;28;20028;-69
2021/07/05 00:53:44;;;;;;;8.75;5.68;;;640.10;1382.40;;;;;;5093956;28;20028;-68
2021/07/05 00:56:10;;;;;;;14.80;5.47;;;640.10;1382.40;;;;;;5093962;28;20024;-69
2021/07/05 00:58:36;;;;;;;9.07;5.53;;;640.10;1382.40;;;;;;5094130;28;20085;-68
2021/07/05 01:01:02;;;;;;;12.48;5.85;;;640.10;1382.40;;;;;;5093796;28;20020;-69
2021/07/05 01:03:28;;;;;;;11.02;5.30;;;640.10;1382.40;;;;;;5094045;28;20036;-69
2021/07/05 01:05:54;;;;;;;10.20;5.43;;;640.10;1382.40;;;;;;5093732;28;20017;-69
2021/07/05 01:08:20;;;;;;;7.40;5.28;;;640.10;1382.40;;;;;;5094076;28;20377;-69
2021/07/05 01:10:47;;;;;;;8.25;5.55;;;640.10;1382.40;;;;;;5093818;28;20027;-69
2021/07/05 01:13:13;;;;;;;10.68;5.50;;;640.10;1382.40;;;;;;5093648;28;20106;-69
2021/07/05 01:15:39;;;;;;;9.32;5.28;;;640.10;1382.40;;;;;;5093607;28;20495;-69
2021/07/05 01:18:06;;;;;;;12.38;5.57;;;640.10;1382.40;;;;;;5093853;28;20031;-70
2021/07/05 01:20:36;;;;;;;10.25;5.55;;;640.10;1382.40;;;;;;5093631;28;20046;-69
2021/07/05 01:23:03;;;;;;;9.52;5.15;;;640.10;1382.40;;;;;;5093616;28;20050;-69
2021/07/05 01:25:30;;;;;;;11.10;5.43;;;640.10;1382.40;;;;;;5093351;28;20102;-69
2021/07/05 01:27:58;;;;;;;7.90;5.53;;;640.00;1382.40;;;;;;5093590;28;20038;-69
2021/07/05 01:30:25;;;;;;;7.82;5.60;;;640.00;1408.00;;;;;;5093340;28;20495;-69
2021/07/05 01:33:05;;;;;;;7.95;5.93;;;615.30;1408.00;;;;;;5093384;28;20042;-69
2021/07/05 01:35:31;;;;;;;8.93;5.57;;;615.30;1382.40;;;;;;5093653;28;20020;-70
2021/07/05 01:37:58;;;;;;;10.68;5.88;;;615.30;1408.00;;;;;;5097774;28;20024;-69
2021/07/05 01:40:25;;;;;;;12.35;5.45;;;615.30;1408.00;;;;;;5097411;28;20020;-69
2021/07/05 01:42:56;;;;;;;10.55;5.30;;;615.20;1433.60;;;;;;5097730;28;20103;-69
2021/07/05 01:45:28;;;;;;;9.43;5.45;;;615.20;1433.60;;;;;;5097787;28;20048;-69
2021/07/05 01:47:55;;;;;;;7.97;6.05;;;615.30;1408.00;;;;;;5097395;28;20030;-69
2021/07/05 01:50:22;;;;;;;15.00;6.00;;;615.30;1433.60;;;;;;5097403;28;20488;-69
2021/07/05 01:52:50;;;;;;;13.48;6.20;;;615.30;1408.00;;;;;;5097403;28;20017;-69
2021/07/05 01:55:16;;;;;;;8.90;6.68;;;615.30;1408.00;;;;;;5097565;28;20051;-68
2021/07/05 01:57:43;;;;;;;11.80;6.22;;;615.20;1433.60;;;;;;5097157;28;20034;-69
2021/07/05 02:00:15;;;;;;;15.07;6.65;;;615.20;1433.60;;;;;;5096617;28;20028;-69
2021/07/05 02:02:41;;;;;;;10.10;6.10;;;615.20;1433.60;;;;;;5097252;28;20080;-69
2021/07/05 02:05:13;;;;;;;11.48;6.53;;;615.20;1433.60;;;;;;5097232;28;20016;-69
2021/07/05 02:07:39;;;;;;;9.00;5.72;;;615.10;1433.60;;;;;;5097429;28;20081;-69
2021/07/05 02:10:12;;;;;;;7.22;5.93;;;615.10;1459.20;;;;;;5097043;28;20082;-69
2021/07/05 02:12:39;;;;;;;10.60;6.23;;;615.10;1459.20;;;;;;5096913;28;20105;-69
2021/07/05 02:15:08;;;;;;;14.25;7.15;;;615.00;1459.20;;;;;;5096714;28;20024;-69
2021/07/05 02:17:35;;;;;;;11.00;7.03;;;615.00;1459.20;;;;;;5096907;28;20093;-69
2021/07/05 02:20:04;;;;;;;10.57;7.00;;;614.90;1459.20;;;;;;5096710;28;20020;-69
2021/07/05 02:22:30;;;;;;;17.08;7.50;;;614.90;1484.80;;;;;;5096883;28;20028;-69
2021/07/05 02:24:56;;;;;;;8.50;6.78;;;614.90;1459.20;;;;;;5096475;28;20055;-69
2021/07/05 02:27:22;;;;;;;10.82;7.03;;;614.90;1459.20;;;;;;5096812;28;20380;-69
2021/07/05 02:29:48;;;;;;;12.40;7.43;;;614.90;1484.80;;;;;;5095113;28;20032;-69
2021/07/05 02:32:14;;;;;;;10.07;7.38;;;614.90;1484.80;;;;;;5096416;28;20024;-69
2021/07/05 02:34:40;;;;;;;16.55;7.70;;;614.90;1484.80;;;;;;5096418;28;20020;-69
2021/07/05 02:37:06;;;;;;;13.05;7.65;;;614.80;1484.80;;;;;;5096615;28;20062;-69
2021/07/05 02:39:32;;;;;;;8.98;7.13;;;614.80;1484.80;;;;;;5096236;28;20032;-69
2021/07/05 02:41:58;;;;;;;12.95;7.50;;;614.80;1484.80;;;;;;5096830;28;20127;-69
2021/07/05 02:44:24;;;;;;;13.02;7.18;;;614.80;1484.80;;;;;;5096310;28;20511;-69
2021/07/05 02:46:50;;;;;;;12.40;7.20;;;614.80;1484.80;;;;;;5095724;28;20028;-69
2021/07/05 02:49:16;;;;;;;13.82;7.53;;;614.70;1510.40;;;;;;5096430;28;20043;-69
2021/07/05 02:51:42;;;;;;;11.15;7.80;;;614.70;1510.40;;;;;;5096516;28;20031;-69
2021/07/05 02:54:08;;;;;;;12.00;7.18;;;614.70;1484.80;;;;;;5096168;28;20020;-69
2021/07/05 02:56:34;;;;;;;27.60;8.32;;;614.70;1484.80;;;;;;5096066;28;20020;-68
2021/07/05 02:59:00;;;;;;;26.40;13.93;;;614.70;1510.40;;;;;;5096166;28;20020;-69
2021/07/05 03:01:26;;;;;;;12.07;7.85;;;614.70;1484.80;;;;;;5095983;28;20477;-69
2021/07/05 03:03:52;;;;;;;10.80;8.13;;;614.80;1484.80;;;;;;5095911;28;20031;-69
2021/07/05 03:06:18;;;;;;;15.23;7.95;;;614.80;1484.80;;;;;;5095985;28;20024;-69
2021/07/05 03:08:44;;;;;;;9.65;7.93;;;614.80;1484.80;;;;;;5094547;28;20476;-69
2021/07/05 03:11:10;;;;;;;13.85;8.00;;;614.80;1459.20;;;;;;5095831;28;20036;-69
2021/07/05 03:13:36;;;;;;;14.90;8.13;;;614.90;1484.80;;;;;;5094515;28;20581;-69
2021/07/05 03:16:02;;;;;;;11.57;8.95;;;614.90;1459.20;;;;;;5096000;28;20388;-69
2021/07/05 03:18:28;;;;;;;12.95;8.02;;;614.90;1484.80;;;;;;5095670;28;20381;-69
2021/07/05 03:20:54;;;;;;;12.75;8.32;;;614.90;1484.80;;;;;;5095695;28;20024;-69
2021/07/05 03:23:21;;;;;;;14.90;8.25;;;614.90;1484.80;;;;;;5095571;28;20034;-69
2021/07/05 03:25:48;;;;;;;17.92;8.32;;;614.90;1484.80;;;;;;5095415;28;20048;-69
2021/07/05 03:28:16;;;;;;;14.95;9.20;;;614.90;1484.80;;;;;;5095422;28;20028;-69
2021/07/05 03:30:44;;;;;;;16.33;8.50;;;614.90;1484.80;;;;;;5095515;28;20050;-69
2021/07/05 03:33:10;;;;;;;17.73;8.98;;;614.90;1484.80;;;;;;5095332;28;20426;-69
2021/07/05 03:35:37;;;;;;;17.25;9.75;;;614.90;1484.80;;;;;;5095649;28;20027;-69
2021/07/05 03:38:04;;;;;;;19.52;9.07;;;614.90;1484.80;;;;;;5095358;28;20028;-69
2021/07/05 03:40:32;;;;;;;19.45;9.60;;;614.80;1484.80;;;;;;5095313;28;20028;-69
2021/07/05 03:42:59;;;;;;;12.32;8.57;;;614.70;1484.80;;;;;;5095280;28;20491;-69
2021/07/05 03:45:30;;;;;;;14.98;9.05;;;614.80;1484.80;;;;;;5095239;28;20028;-69
2021/07/05 03:47:57;;;;;;;14.40;9.25;;;614.70;1484.80;;;;;;5095107;28;20031;-69
2021/07/05 03:50:24;;;;;;;18.17;8.88;;;614.60;1484.80;;;;;;5095148;28;20036;-69
2021/07/05 03:52:51;;;;;;;16.67;10.02;;;614.70;1484.80;;;;;;5095385;28;20476;-69
2021/07/05 03:55:20;;;;;;;16.13;9.82;;;614.80;1484.80;;;;;;5095060;28;20028;-69
2021/07/05 03:57:47;;;;;;;18.13;9.52;;;614.80;1484.80;;;;;;5094682;28;20035;-69
2021/07/05 04:00:21;;;;;;;15.35;9.70;;;614.90;1484.80;;;;;;5094291;28;20024;-69
2021/07/05 04:02:48;;;;;;;18.90;10.57;;;614.80;1484.80;;;;;;5094825;28;20046;-69
2021/07/05 04:05:14;;;;;;;16.98;10.55;;;614.80;1510.40;;;;;;5095125;28;20044;-69
2021/07/05 04:07:42;;;;;;;16.13;10.60;;;614.90;1484.80;;;;;;5095147;28;20028;-69
2021/07/05 04:10:10;;;;;;;13.77;10.65;;;614.90;1510.40;;;;;;5094914;28;20036;-69
2021/07/05 04:12:36;;;;;;;16.35;9.80;;;614.90;1510.40;;;;;;5094739;28;20016;-69
2021/07/05 04:15:05;;;;;;;18.40;10.80;;;614.90;1484.80;;;;;;5094656;28;20111;-69
2021/07/05 04:17:31;;;;;;;18.80;9.88;;;615.00;1484.80;;;;;;5094578;28;20027;-69
2021/07/05 04:19:57;;;;;;;15.80;9.73;;;614.90;1484.80;;;;;;5094832;28;20107;-69
2021/07/05 04:22:23;;;;;;;17.08;9.60;;;615.00;1484.80;;;;;;5094421;28;20548;-68
2021/07/05 04:24:50;;;;;;;18.60;9.48;;;614.90;1484.80;;;;;;5094105;28;20048;-68
2021/07/05 04:27:16;;;;;;;24.33;11.48;;;614.90;1484.80;;;;;;5094324;28;20028;-69
2021/07/05 04:29:42;;;;;;;18.75;10.32;;;615.00;1484.80;;;;;;5094571;28;20366;-69
2021/07/05 04:32:09;;;;;;;21.10;10.00;;;615.00;1510.40;;;;;;5093082;28;20016;-69
2021/07/05 04:34:35;;;;;;;15.45;10.20;;;615.00;1484.80;;;;;;5094173;28;20491;-69
2021/07/05 04:37:02;;;;;;;21.40;11.65;;;615.00;1484.80;;;;;;5094527;28;20016;-69
2021/07/05 04:39:27;;;;;;;19.00;12.13;;;615.00;1510.40;;;;;;5094405;28;20418;-69
2021/07/05 04:41:54;;;;;;;29.35;12.52;;;615.00;1510.40;;;;;;5094442;28;20016;-69
2021/07/05 04:44:21;;;;;;;21.83;12.05;;;614.90;1536.00;;;;;;5094881;28;20028;-69
2021/07/05 04:46:48;;;;;;;23.55;12.15;;;614.90;1536.00;;;;;;5094054;28;20016;-69
2021/07/05 04:49:16;;;;;;;28.85;12.85;;;614.80;1536.00;;;;;;5094800;28;20082;-69
2021/07/05 04:51:42;;;;;;;30.90;12.68;;;614.90;1536.00;;;;;;5092796;28;20023;-69
2021/07/05 04:54:08;;;;;;;28.33;12.55;;;614.80;1536.00;;;;;;5094230;28;20028;-69
2021/07/05 04:56:34;;;;;;;28.83;13.35;;;614.80;1561.60;;;;;;5093950;28;20095;-69
2021/07/05 04:59:01;;;;;;;39.60;14.05;;;614.80;1561.60;;;;;;5093769;28;20032;-69
2021/07/05 05:01:27;;;;;;;28.45;12.55;;;614.80;1587.20;;;;;;5094106;28;20418;-69
2021/07/05 05:03:53;;;;;;;27.95;11.63;;;614.80;1561.60;;;;;;5093748;28;20040;-69
2021/07/05 05:06:19;;;;;;;25.60;11.10;;;614.80;1561.60;;;;;;5093761;28;20020;-69
2021/07/05 05:08:45;;;;;;;25.48;10.80;;;614.80;1536.00;;;;;;5093680;28;20031;-70
2021/07/05 05:11:12;;;;;;;26.27;9.85;;;614.90;1536.00;;;;;;5093789;28;20107;-69
2021/07/05 05:13:37;;;;;;;27.10;10.30;;;614.90;1510.40;;;;;;5093570;28;20474;-69
2021/07/05 05:16:04;;;;;;;25.55;11.00;;;614.90;1536.00;;;;;;5093571;28;20111;-69
2021/07/05 05:18:30;;;;;;;23.00;10.52;;;615.00;1536.00;;;;;;5093636;28;20028;-69
2021/07/05 05:20:56;;;;;;;26.40;10.02;;;615.00;1536.00;;;;;;5092352;28;20406;-69
2021/07/05 05:23:22;;;;;;;17.02;9.48;;;615.00;1536.00;;;;;;5093557;28;20050;-69
2021/07/05 05:25:48;;;;;;;14.00;8.65;;;615.00;1536.00;;;;;;5093385;28;20097;-70
2021/07/05 05:28:14;;;;;;;14.98;8.68;;;614.90;1536.00;;;;;;5093386;28;20461;-69
2021/07/05 05:30:40;;;;;;;17.33;9.73;;;615.00;1536.00;;;;;;5093783;28;20036;-70
2021/07/05 05:33:06;;;;;;;11.38;9.10;;;615.00;1510.40;;;;;;5093376;28;20024;-70
2021/07/05 05:35:33;;;;;;;18.80;9.52;;;615.10;1510.40;;;;;;5093668;28;20111;-69
2021/07/05 05:37:59;;;;;;;17.17;9.27;;;615.10;1510.40;;;;;;5093409;28;20025;-69
2021/07/05 05:40:26;;;;;;;22.00;9.88;;;615.10;1510.40;;;;;;5093418;28;20028;-70
2021/07/05 05:42:53;;;;;;;20.13;9.63;;;615.10;1510.40;;;;;;5093335;28;20028;-69
2021/07/05 05:45:19;;;;;;;13.27;9.45;;;615.10;1510.40;;;;;;5093726;28;20126;-70
2021/07/05 05:47:46;;;;;;;19.40;10.00;;;615.20;1484.80;;;;;;5093327;28;20043;-69
2021/07/05 05:50:12;;;;;;;15.93;9.70;;;615.20;1484.80;;;;;;5093286;28;20389;-69
2021/07/05 05:52:38;;;;;;;16.05;10.05;;;615.20;1484.80;;;;;;5093304;28;20074;-69
2021/07/05 05:55:06;;;;;;;16.27;8.52;;;615.30;1484.80;;;;;;5093549;28;20024;-70
2021/07/05 05:57:32;;;;;;;15.88;9.25;;;640.00;1484.80;;;;;;5093324;28;20023;-69
2021/07/05 06:00:01;;;;;;;21.15;9.77;;;640.00;1484.80;;;;;;5093234;28;20464;-69
2021/07/05 06:02:28;;;;;;;19.98;8.85;;;640.10;1484.80;;;;;;5092993;28;20052;-69
2021/07/05 06:04:54;;;;;;;14.13;8.43;;;640.10;1484.80;;;;;;5092794;28;20024;-70
2021/07/05 06:07:21;;;;;;;19.67;11.65;;;640.10;1484.80;;;;;;5092627;28;20020;-69
2021/07/05 06:09:47;;;;;;;18.02;11.73;;;640.20;1484.80;;;;;;5092922;28;20032;-69
2021/07/05 06:12:13;;;;;;;22.77;15.35;;;640.20;1459.20;;;;;;5092531;28;20048;-69
2021/07/05 06:14:40;;;;;;;22.73;14.82;;;640.20;1459.20;;;;;;5092682;28;20499;-70
2021/07/05 06:17:06;;;;;;;22.70;12.15;;;640.30;1459.20;;;;;;5092533;28;20020;-69
2021/07/05 06:19:32;;;;;;;15.20;10.20;;;640.30;1459.20;;;;;;5092367;28;20035;-68
2021/07/05 06:21:58;;;;;;;14.73;8.90;;;640.30;1459.20;;;;;;5092167;28;20024;-68
2021/07/05 06:24:23;;;;;;;21.35;8.25;;;640.50;1459.20;;;;;;5096061;28;20040;-68
2021/07/05 06:26:49;;;;;;;12.60;7.30;;;640.50;1459.20;;;;;;5096420;28;20095;-69
2021/07/05 06:29:15;;;;;;;14.73;7.10;;;640.50;1459.20;;;;;;5096056;28;20365;-68
2021/07/05 06:31:41;;;;;;;15.73;7.32;;;640.60;1433.60;;;;;;5096124;28;20016;-69
2021/07/05 06:34:08;;;;;;;12.30;6.82;;;640.60;1433.60;;;;;;5096316;28;20027;-73
2021/07/05 06:36:35;;;;;;;9.85;6.68;;;640.70;1433.60;;;;;;5096363;28;20111;-69
2021/07/05 06:39:01;;;;;;;18.02;7.05;;;640.70;1433.60;;;;;;5096711;28;20032;-69
2021/07/05 06:41:27;;;;;;;44.50;9.52;;;640.80;1433.60;;;;;;5096245;28;20069;-69
2021/07/05 06:43:53;;;;;;;47.53;7.78;;;640.80;1433.60;;;;;;5096519;28;20032;-69
2021/07/05 06:46:23;;;;;;;70.63;11.10;;;665.60;1459.20;;;;;;5095900;28;20024;-69
2021/07/05 06:48:49;;;;;;;30.15;9.50;;;665.70;1433.60;;;;;;5095850;28;20042;-69
2021/07/05 06:51:16;;;;;;;42.72;10.05;;;665.90;1408.00;;;;;;5096123;28;20016;-69
2021/07/05 06:53:42;;;;;;;23.58;7.82;;;666.20;1382.40;;;;;;5095432;28;20027;-69
2021/07/05 06:56:08;;;;;;;38.38;10.75;;;666.40;1382.40;;;;;;5095500;28;20108;-69
2021/07/05 06:58:35;;;;;;;11.40;6.50;;;691.20;1356.80;;;;;;5095608;28;20099;-69
2021/07/05 07:01:02;;;;;;;17.75;7.55;;;691.40;1331.20;;;;;;5095877;28;20055;-70
2021/07/05 07:03:28;;;;;;;22.40;8.48;;;691.50;1331.20;;;;;;5095551;28;20012;-70
2021/07/05 07:05:55;;;;;;;24.45;7.32;;;691.70;1331.20;;;;;;5095455;28;20028;-70
2021/07/05 07:08:21;;;;;;;18.80;7.80;;;691.70;1331.20;;;;;;5095874;28;20126;-69
2021/07/05 07:10:47;;;;;;;31.77;6.30;;;691.80;1305.60;;;;;;5095748;28;20028;-70
2021/07/05 07:13:13;;;;;;;42.70;7.40;;;691.80;1228.80;;;;;;5094132;28;20027;-70
2021/07/05 07:15:41;;;;;;;53.75;10.25;;;691.70;1280.00;;;;;;5093736;28;20492;-69
2021/07/05 07:21:08;;;;;;;22.42;8.18;;;691.70;1305.60;;;;;;5050967;28;20051;-69
2021/07/05 07:23:34;;;;;;;23.00;6.75;;;691.70;1305.60;;;;;;5085003;28;20036;-69
2021/07/05 07:26:00;;;;;;;23.00;7.15;;;691.70;1305.60;;;;;;5093558;28;20080;-70
2021/07/05 07:28:26;;;;;;;7.82;4.80;;;691.70;1280.00;;;;;;5093899;28;20039;-70
2021/07/05 07:30:52;;;;;;;21.65;6.85;;;691.60;1254.40;;;;;;5094815;28;20491;-70
2021/07/05 07:33:17;;;;;;;23.33;7.40;;;691.70;1305.60;;;;;;5095683;28;20103;-69
2021/07/05 07:35:43;;;;;;;13.63;6.38;;;691.70;1305.60;;;;;;5095392;28;20366;-70
2021/07/05 07:38:09;;;;;;;15.15;5.43;;;691.70;1305.60;;;;;;5095297;28;20056;-70
2021/07/05 07:40:38;;;;;;;22.65;6.03;;;691.70;1305.60;;;;;;5095285;28;20050;-70
2021/07/05 07:43:04;;;;;;;13.18;5.50;;;691.60;1305.60;;;;;;5095537;28;20380;-69
2021/07/05 07:45:30;;;;;;;21.55;6.38;;;691.60;1305.60;;;;;;5095434;28;20515;-69
2021/07/05 07:47:57;;;;;;;15.52;5.78;;;691.60;1305.60;;;;;;5095473;28;20016;-69
2021/07/05 07:50:23;;;;;;;10.98;5.35;;;691.60;1305.60;;;;;;5095005;28;20039;-70
2021/07/05 07:52:49;;;;;;;11.02;5.32;;;691.60;1305.60;;;;;;5095289;28;20070;-70
2021/07/05 07:55:16;;;;;;;14.40;5.60;;;691.60;1305.60;;;;;;5095280;28;20081;-70
2021/07/05 07:57:43;;;;;;;11.43;5.57;;;691.60;1305.60;;;;;;5095141;28;20016;-69
2021/07/05 08:00:11;;;;;;;14.30;5.55;;;691.70;1305.60;;;;;;5094916;28;20053;-70
2021/07/05 08:02:37;;;;;;;8.30;5.50;;;691.70;1305.60;;;;;;5094864;28;20024;-69
2021/07/05 08:05:04;;;;;;;10.40;5.80;;;691.70;1305.60;;;;;;5095108;28;20024;-70
2021/07/05 08:07:30;;;;;;;9.40;5.78;;;691.70;1305.60;;;;;;5095215;28;20039;-70
2021/07/05 08:09:56;;;;;;;10.65;4.70;;;691.70;1305.60;;;;;;5094934;28;20028;-70
2021/07/05 08:12:22;;;;;;;11.55;4.85;;;691.70;1305.60;;;;;;5095006;28;20345;-70
2021/07/05 08:14:49;;;;;;;7.60;4.93;;;691.70;1305.60;;;;;;5094689;28;20134;-70
2021/07/05 08:17:15;;;;;;;8.88;4.93;;;691.60;1331.20;;;;;;5094770;28;20496;-69
2021/07/05 08:19:41;;;;;;;9.98;5.53;;;691.60;1331.20;;;;;;5094635;28;20024;-69
2021/07/05 08:22:07;;;;;;;11.63;5.10;;;691.60;1331.20;;;;;;5094827;28;20016;-69
2021/07/05 08:24:33;;;;;;;6.15;4.50;;;691.50;1331.20;;;;;;5094545;28;20131;-68
2021/07/05 08:26:59;;;;;;;10.30;5.00;;;691.50;1331.20;;;;;;5094705;28;20555;-69
2021/07/05 08:29:25;;;;;;;10.38;4.95;;;691.50;1331.20;;;;;;5095143;28;20044;-69
2021/07/05 08:31:53;;;;;;;10.48;4.90;;;691.50;1331.20;;;;;;5094193;28;20105;-69
2021/07/05 08:34:19;;;;;;;6.95;5.22;;;691.50;1331.20;;;;;;5094295;28;20024;-69
2021/07/05 08:36:45;;;;;;;12.90;5.30;;;691.50;1331.20;;;;;;5094265;28;20027;-68
2021/07/05 08:39:13;;;;;;;9.10;5.03;;;691.60;1331.20;;;;;;5094248;28;20023;-68
2021/07/05 08:41:40;;;;;;;13.65;5.25;;;691.60;1331.20;;;;;;5094422;28;20020;-70
2021/07/05 08:44:07;;;;;;;11.43;5.00;;;691.60;1331.20;;;;;;5093896;28;20085;-69
2021/07/05 08:46:34;;;;;;;9.68;4.82;;;691.70;1331.20;;;;;;5093844;28;20016;-69
2021/07/05 08:49:00;;;;;;;12.23;5.45;;;691.70;1331.20;;;;;;5094245;28;20426;-69
2021/07/05 08:51:26;;;;;;;12.88;5.72;;;691.80;1331.20;;;;;;5094241;28;20054;-69
2021/07/05 08:53:53;;;;;;;9.65;5.40;;;691.80;1331.20;;;;;;5094276;28;20024;-69
2021/07/05 08:56:21;;;;;;;10.18;5.38;;;691.80;1331.20;;;;;;5094235;28;20051;-69
2021/07/05 08:58:47;;;;;;;10.15;5.38;;;691.80;1331.20;;;;;;5093960;28;20051;-69
2021/07/05 09:01:15;;;;;;;6.50;4.47;;;691.80;1331.20;;;;;;5093829;28;20109;-70
2021/07/05 09:03:41;;;;;;;9.63;5.43;;;691.80;1331.20;;;;;;5094108;28;20036;-70
2021/07/05 09:06:16;;;;;;;8.50;5.10;;;691.90;1305.60;;;;;;5092524;28;20032;-68
2021/07/05 09:08:45;;;;;;;9.60;5.43;;;691.90;1305.60;;;;;;5093662;28;20476;-70
2021/07/05 09:11:16;;;;;;;7.47;5.18;;;691.90;1305.60;;;;;;5093764;28;20484;-70
2021/07/05 09:13:53;;;;;;;8.88;5.20;;;691.90;1305.60;;;;;;5093703;28;20027;-70
2021/07/05 09:16:49;;;;;;;8.98;5.13;;;692.00;1305.60;;;;;;5093686;28;20039;-69
2021/07/05 09:19:23;;;;;;;8.15;5.22;;;692.00;1305.60;;;;;;5076296;28;20036;-70
2021/07/05 09:21:52;;;;;;;5.85;4.50;;;692.10;1228.80;;;;;;5093984;28;20020;-70
2021/07/05 09:24:32;;;;;;;8.60;4.47;;;716.80;1280.00;;;;;;5093570;28;20056;-70
2021/07/05 09:27:07;;;;;;;11.40;4.90;;;716.90;1280.00;;;;;;5092594;28;20024;-69
2021/07/05 09:29:34;;;;;;;8.40;4.80;;;716.90;1254.40;;;;;;5093729;28;20028;-70
2021/07/05 09:32:04;;;;;;;10.48;5.43;;;717.00;1280.00;;;;;;5092813;28;20031;-68
2021/07/05 09:34:33;;;;;;;5.93;4.50;;;717.00;1280.00;;;;;;5093077;28;20524;-69
2021/07/05 09:37:23;;;;;;;9.70;4.75;;;717.00;1203.20;;;;;;5093397;28;20020;-69
2021/07/05 09:40:10;;;;;;;5.65;4.68;;;717.00;1203.20;;;;;;5093913;28;20075;-69
2021/07/05 09:42:49;;;;;;;7.65;5.00;;;717.00;1228.80;;;;;;5093389;28;20025;-69
2021/07/05 09:45:37;;;;;;;8.80;4.95;;;717.10;1254.40;;;;;;5093348;28;20024;-69
2021/07/05 09:48:12;;;;;;;10.05;4.40;;;717.20;1254.40;;;;;;5093320;28;20028;-70
2021/07/05 09:50:38;;;;;;;9.43;5.10;;;717.20;1254.40;;;;;;5093332;28;20036;-69
2021/07/05 09:53:35;;;;;;;11.60;5.05;;;717.20;1177.60;;;;;;5093456;28;20027;-69
2021/07/05 09:56:18;;;;;;;13.20;4.82;;;717.20;1203.20;;;;;;5093592;28;20469;-69
2021/07/05 09:58:44;;;;;;;8.07;4.55;;;717.20;1203.20;;;;;;5097301;28;20380;-69
2021/07/05 10:01:10;;;;;;;14.07;5.10;;;717.30;1228.80;;;;;;5097268;28;20111;-69
2021/07/05 10:03:39;;;;;;;11.82;7.22;;;717.30;1228.80;;;;;;5097363;28;20031;-68
2021/07/05 10:06:17;;;;;;;11.48;6.18;;;717.30;1228.80;;;;;;5097052;28;20039;-69
2021/07/05 10:08:42;;;;;;;10.00;6.05;;;717.30;1254.40;;;;;;5096800;28;20031;-68
2021/07/05 10:11:09;;;;;;;11.35;7.50;;;717.20;1254.40;;;;;;5097104;28;20028;-68
2021/07/05 10:13:35;;;;;;;11.98;7.13;;;717.20;1254.40;;;;;;5097075;28;20373;-70
2021/07/05 10:16:02;;;;;;;12.30;7.28;;;717.20;1254.40;;;;;;5096782;28;20024;-70
2021/07/05 10:18:28;;;;;;;11.13;6.35;;;717.20;1254.40;;;;;;5097002;28;20028;-68
2021/07/05 10:20:54;;;;;;;9.77;6.80;;;717.20;1254.40;;;;;;5096993;28;20016;-69
2021/07/05 10:23:20;;;;;;;13.85;6.47;;;717.20;1280.00;;;;;;5097250;28;20065;-70
2021/07/05 10:25:49;;;;;;;11.15;6.30;;;717.10;1280.00;;;;;;5096519;28;20048;-69
2021/07/05 10:28:15;;;;;;;9.25;6.63;;;717.10;1280.00;;;;;;5096856;28;20043;-68
2021/07/05 10:30:42;;;;;;;11.75;6.70;;;717.10;1280.00;;;;;;5096519;28;20545;-69
2021/07/05 10:33:09;;;;;;;15.45;8.65;;;717.10;1280.00;;;;;;5096899;28;20383;-68
2021/07/05 10:35:39;;;;;;;10.35;7.00;;;717.10;1280.00;;;;;;5096827;28;20365;-68
2021/07/05 10:38:35;;;;;;;16.63;7.45;;;717.20;1280.00;;;;;;5096573;28;20031;-69
2021/07/05 10:41:14;;;;;;;15.77;6.90;;;717.20;1280.00;;;;;;5096454;28;20464;-68
2021/07/05 10:43:55;;;;;;;17.55;6.75;;;717.20;1280.00;;;;;;5096414;28;20024;-68
2021/07/05 10:46:57;;;;;;;15.02;6.78;;;717.20;1280.00;;;;;;5096610;28;20085;-69
2021/07/05 10:49:31;;;;;;;10.98;6.13;;;717.20;1280.00;;;;;;5096518;28;20036;-69
2021/07/05 10:52:03;;;;;;;12.93;6.45;;;717.20;1280.00;;;;;;5096239;28;20024;-68
2021/07/05 10:54:56;;;;;;;13.48;5.95;;;717.20;1280.00;;;;;;5096169;28;20146;-69
2021/07/05 10:57:27;;;;;;;9.10;5.72;;;717.30;1280.00;;;;;;5096452;28;20032;-68
2021/07/05 10:59:53;;;;;;;8.88;5.82;;;717.30;1280.00;;;;;;5096121;28;20038;-68
2021/07/05 11:02:44;;;;;;;9.50;5.78;;;717.40;1280.00;;;;;;5096348;28;20373;-69
2021/07/05 11:05:28;;;;;;;12.85;5.43;;;717.40;1305.60;;;;;;5096090;28;20073;-68
2021/07/05 11:07:55;;;;;;;11.18;5.43;;;717.40;1280.00;;;;;;5095433;28;20055;-68
2021/07/05 11:10:27;;;;;;;16.23;5.88;;;717.40;1280.00;;;;;;5095906;28;20036;-69
2021/07/05 11:13:00;;;;;;;11.70;6.50;;;717.50;1280.00;;;;;;5095871;28;20028;-69
2021/07/05 11:15:56;;;;;;;28.00;6.88;;;717.60;1254.40;;;;;;5096099;28;20024;-68
2021/07/05 11:18:38;;;;;;;10.15;5.30;;;717.60;1280.00;;;;;;5096098;28;20052;-68
2021/07/05 11:21:07;;;;;;;14.35;5.25;;;717.60;1280.00;;;;;;5095928;28;20028;-69
2021/07/05 11:24:02;;;;;;;16.70;6.22;;;717.60;1280.00;;;;;;5095686;28;20023;-69
2021/07/05 11:26:36;;;;;;;14.15;5.63;;;717.60;1280.00;;;;;;5072959;28;20072;-69
2021/07/05 11:29:23;;;;;;;13.60;5.65;;;717.60;1280.00;;;;;;5095772;28;20032;-69
2021/07/05 11:32:00;;;;;;;14.75;5.38;;;717.60;1280.00;;;;;;5095463;28;20020;-68
2021/07/05 11:34:40;;;;;;;13.63;5.50;;;717.60;1254.40;;;;;;5095733;28;20028;-69
2021/07/05 11:37:30;;;;;;;13.50;6.18;;;717.60;1228.80;;;;;;5095252;28;20016;-69
2021/07/05 11:39:56;;;;;;;18.10;5.57;;;742.40;1280.00;;;;;;5082735;28;20035;-69
2021/07/05 11:42:42;;;;;;;7.65;4.93;;;742.40;1280.00;;;;;;5094889;28;20028;-69
2021/07/05 11:45:09;;;;;;;10.65;5.90;;;742.40;1280.00;;;;;;5094305;28;20501;-69
2021/07/05 11:47:47;;;;;;;7.47;5.60;;;742.40;1254.40;;;;;;5094688;28;20031;-69
2021/07/05 11:50:13;;;;;;;6.03;4.80;;;742.40;1254.40;;;;;;5092210;28;20115;-69
2021/07/05 11:52:47;;;;;;;8.85;5.10;;;742.50;1254.40;;;;;;5094614;28;20107;-69
2021/07/05 11:55:14;;;;;;;8.07;5.50;;;742.50;1254.40;;;;;;5092181;28;20092;-69
2021/07/05 11:57:47;;;;;;;11.25;5.35;;;742.50;1254.40;;;;;;5094602;28;20108;-69
2021/07/05 12:00:14;;;;;;;11.15;5.40;;;742.50;1254.40;;;;;;5092419;28;20376;-69
2021/07/05 12:02:40;;;;;;;150.65;11.90;;;742.50;1254.40;;;;;;5094499;28;20035;-69
2021/07/05 12:05:08;;;;;;;40.33;6.50;;;742.50;1228.80;;;;;;5094569;28;20020;-69
2021/07/05 12:10:10;;;;;;;18.92;5.47;;;742.60;1254.40;;;;;;5052810;22;20045;-54
2021/07/05 12:12:36;;;;;;;30.63;6.15;;;742.50;1254.40;;;;;;5033982;28;20351;-52
2021/07/05 12:15:04;;;;;;;55.75;9.38;;;742.50;1203.20;;;;;;5034230;28;20021;-53
2021/07/05 12:17:30;;;;;;;42.03;9.30;;;742.50;1254.40;;;;;;5033983;28;20477;-49
2021/07/05 12:19:56;;;;;;;38.80;7.80;;;742.40;1254.40;;;;;;5033442;28;20064;-54